Time;durP1;ratioP1;P1;durP2;ratioP2;P2;SDS_P1;SDS_P2;PMS_P1;PMS_P2;Temp;Humidity;BMP_temperature;BMP_pressure;BME280_temperature;BME280_humidity;BME280_pressure;Samples;Min_cycle;Max_cycle;Signal;HPM_P1;HPM_P2
2023/07/09 00:01:01;;;;;;;6.13;4.70;;;;;;;;;;4983987;28;20222;-85
2023/07/09 00:04:10;;;;;;;7.20;4.90;;;;;;;;;;4973232;28;20174;-85
2023/07/09 00:07:28;;;;;;;7.33;4.93;;;;;;;;;;4995443;28;20539;-85
2023/07/09 00:10:34;;;;;;;9.97;5.93;;;;;;;;;;4995204;28;20226;-85
2023/07/09 00:13:38;;;;;;;6.47;5.03;;;;;;;;;;4984204;28;20178;-85
2023/07/09 00:16:46;;;;;;;11.07;5.30;;;;;;;;;;4973060;28;20205;-85
2023/07/09 00:19:53;;;;;;;7.60;4.90;;;;;;;;;;4984377;28;20190;-85
2023/07/09 00:22:57;;;;;;;12.43;4.60;;;;;;;;;;4962571;28;20186;-85
2023/07/09 00:26:03;;;;;;;8.60;5.10;;;;;;;;;;4983788;28;20195;-85
2023/07/09 00:29:11;;;;;;;7.73;4.73;;;;;;;;;;4972648;28;20183;-85
2023/07/09 00:32:17;;;;;;;8.07;5.27;;;;;;;;;;5006433;28;20174;-85
2023/07/09 00:35:23;;;;;;;8.07;5.07;;;;;;;;;;4972549;28;20182;-85
2023/07/09 00:38:27;;;;;;;9.27;5.20;;;;;;;;;;4983882;28;20206;-85
2023/07/09 00:41:36;;;;;;;9.37;4.53;;;;;;;;;;4983522;28;20222;-85
2023/07/09 00:44:45;;;;;;;12.73;5.47;;;;;;;;;;4972721;28;20654;-85
2023/07/09 00:47:49;;;;;;;9.60;5.67;;;;;;;;;;4983646;28;20542;-85
2023/07/09 00:50:53;;;;;;;10.23;4.90;;;;;;;;;;5006220;28;20218;-85
2023/07/09 00:54:07;;;;;;;8.47;5.07;;;;;;;;;;4995183;28;20205;-85
2023/07/09 00:57:17;;;;;;;8.00;5.50;;;;;;;;;;4995348;28;20209;-85
2023/07/09 01:00:20;;;;;;;8.00;4.73;;;;;;;;;;4994754;28;20217;-85
2023/07/09 01:03:33;;;;;;;10.43;5.63;;;;;;;;;;4995004;28;20652;-85
2023/07/09 01:06:42;;;;;;;8.10;5.07;;;;;;;;;;4972732;28;20196;-85
2023/07/09 01:09:46;;;;;;;8.33;5.73;;;;;;;;;;4983467;28;20186;-85
2023/07/09 01:12:50;;;;;;;7.87;5.37;;;;;;;;;;4983457;28;20186;-85
2023/07/09 01:15:56;;;;;;;7.83;5.27;;;;;;;;;;4983642;28;20182;-85
2023/07/09 01:19:01;;;;;;;9.20;5.80;;;;;;;;;;4994077;28;20210;-85
2023/07/09 01:22:06;;;;;;;10.47;5.90;;;;;;;;;;4983582;28;20182;-85
2023/07/09 01:25:11;;;;;;;9.97;5.50;;;;;;;;;;4994012;28;20213;-85
2023/07/09 01:28:16;;;;;;;8.47;5.37;;;;;;;;;;4983041;28;20182;-85
2023/07/09 01:31:23;;;;;;;7.87;6.13;;;;;;;;;;4982721;28;20222;-85
2023/07/09 01:34:27;;;;;;;10.03;5.83;;;;;;;;;;4972051;28;20182;-85
2023/07/09 01:37:36;;;;;;;9.43;5.60;;;;;;;;;;4983217;28;20206;-85
2023/07/09 01:40:41;;;;;;;7.83;5.43;;;;;;;;;;4983511;28;20720;-85
2023/07/09 01:43:46;;;;;;;11.43;6.07;;;;;;;;;;4998521;28;20519;-85
2023/07/09 01:46:50;;;;;;;8.33;5.37;;;;;;;;;;4976249;28;20676;-85
2023/07/09 01:49:57;;;;;;;9.10;5.97;;;;;;;;;;4986843;28;20569;-85
2023/07/09 01:53:00;;;;;;;10.83;6.33;;;;;;;;;;5009573;28;20182;-85
2023/07/09 01:56:07;;;;;;;8.87;5.60;;;;;;;;;;4986831;28;20538;-85
2023/07/09 01:59:11;;;;;;;8.37;6.10;;;;;;;;;;4998388;28;20229;-85
2023/07/09 02:02:18;;;;;;;10.27;5.80;;;;;;;;;;4987280;28;20182;-84
2023/07/09 02:05:23;;;;;;;10.90;6.33;;;;;;;;;;5000687;28;20559;-84
2023/07/09 02:08:30;;;;;;;9.70;6.17;;;;;;;;;;4989933;28;20179;-85
2023/07/09 02:11:34;;;;;;;9.13;5.77;;;;;;;;;;4978460;28;20704;-84
2023/07/09 02:14:39;;;;;;;9.97;6.43;;;;;;;;;;5000748;28;20186;-84
2023/07/09 02:17:43;;;;;;;14.00;6.10;;;;;;;;;;4989622;28;20546;-84
2023/07/09 02:20:47;;;;;;;12.40;5.90;;;;;;;;;;4989389;28;20716;-85
2023/07/09 02:23:53;;;;;;;13.13;6.40;;;;;;;;;;4989567;28;20205;-84
2023/07/09 02:26:59;;;;;;;9.90;6.53;;;;;;;;;;4989863;28;20188;-85
2023/07/09 02:30:06;;;;;;;9.90;6.43;;;;;;;;;;4990246;28;20219;-84
2023/07/09 02:33:10;;;;;;;10.67;6.20;;;;;;;;;;4989714;28;20186;-85
2023/07/09 02:36:14;;;;;;;12.63;6.67;;;;;;;;;;4989768;28;20187;-84
2023/07/09 02:39:19;;;;;;;10.13;6.30;;;;;;;;;;4977623;28;20706;-84
2023/07/09 02:42:23;;;;;;;10.47;6.40;;;;;;;;;;4989514;28;20190;-85
2023/07/09 02:45:28;;;;;;;12.83;6.60;;;;;;;;;;4978641;28;20629;-85
2023/07/09 02:48:32;;;;;;;10.27;6.30;;;;;;;;;;4989000;28;20198;-85
2023/07/09 02:51:37;;;;;;;8.60;5.83;;;;;;;;;;4988322;28;20225;-84
2023/07/09 02:54:41;;;;;;;10.47;6.40;;;;;;;;;;4999300;28;20632;-84
2023/07/09 02:57:45;;;;;;;13.27;6.53;;;;;;;;;;4999592;28;20679;-84
2023/07/09 03:00:52;;;;;;;17.50;7.67;;;;;;;;;;4988132;28;20723;-84
2023/07/09 03:03:59;;;;;;;11.30;6.33;;;;;;;;;;4988415;28;20182;-84
2023/07/09 03:07:04;;;;;;;12.00;6.40;;;;;;;;;;4987658;28;20205;-85
2023/07/09 03:10:08;;;;;;;17.13;6.67;;;;;;;;;;4987801;28;20217;-84
2023/07/09 03:13:12;;;;;;;9.73;6.20;;;;;;;;;;4988181;28;20549;-85
2023/07/09 03:16:16;;;;;;;9.63;7.00;;;;;;;;;;4999374;28;20186;-84
2023/07/09 03:19:21;;;;;;;9.33;6.80;;;;;;;;;;4987782;28;20761;-84
2023/07/09 03:22:25;;;;;;;9.77;6.53;;;;;;;;;;4998369;28;20669;-85
2023/07/09 03:25:29;;;;;;;12.53;6.83;;;;;;;;;;4988034;28;20633;-84
2023/07/09 03:28:33;;;;;;;11.97;6.53;;;;;;;;;;4977151;28;20185;-84
2023/07/09 03:31:37;;;;;;;14.63;6.50;;;;;;;;;;4999192;28;20213;-84
2023/07/09 03:34:42;;;;;;;8.33;6.87;;;;;;;;;;4987583;28;20182;-84
2023/07/09 03:37:46;;;;;;;10.47;6.63;;;;;;;;;;4999023;28;20210;-85
2023/07/09 03:40:51;;;;;;;11.87;6.50;;;;;;;;;;4987384;28;20723;-81
2023/07/09 03:43:56;;;;;;;8.07;6.20;;;;;;;;;;4998739;28;20209;-81
2023/07/09 03:47:00;;;;;;;12.43;6.20;;;;;;;;;;4997713;28;20657;-81
2023/07/09 03:50:09;;;;;;;9.43;6.53;;;;;;;;;;4997851;28;20723;-81
2023/07/09 03:53:14;;;;;;;9.13;6.63;;;;;;;;;;4998355;28;20190;-81
2023/07/09 03:56:19;;;;;;;14.67;7.23;;;;;;;;;;5008589;28;20182;-81
2023/07/09 03:59:23;;;;;;;11.70;7.23;;;;;;;;;;4985870;28;20217;-81
2023/07/09 04:02:27;;;;;;;12.77;6.33;;;;;;;;;;4997510;28;20193;-81
2023/07/09 04:05:32;;;;;;;15.10;6.87;;;;;;;;;;4996129;28;20186;-81
2023/07/09 04:08:36;;;;;;;10.80;6.13;;;;;;;;;;4986340;28;20677;-81
2023/07/09 04:11:40;;;;;;;12.30;6.87;;;;;;;;;;4986237;28;20214;-81
2023/07/09 04:14:44;;;;;;;11.83;6.90;;;;;;;;;;4974779;28;20178;-82
2023/07/09 04:17:48;;;;;;;9.03;6.00;;;;;;;;;;4985709;28;20533;-81
2023/07/09 04:20:53;;;;;;;10.17;6.20;;;;;;;;;;4986039;28;20221;-81
2023/07/09 04:23:57;;;;;;;11.20;6.63;;;;;;;;;;4974667;28;20193;-81
2023/07/09 04:27:02;;;;;;;10.43;6.17;;;;;;;;;;4974704;28;20189;-81
2023/07/09 04:30:14;;;;;;;11.90;6.97;;;;;;;;;;4997603;28;20224;-81
2023/07/09 04:33:20;;;;;;;11.97;6.10;;;;;;;;;;4997752;28;20266;-81
2023/07/09 04:36:25;;;;;;;11.67;6.83;;;;;;;;;;4997707;28;20640;-81
2023/07/09 04:39:31;;;;;;;10.07;6.73;;;;;;;;;;4985244;28;20221;-81
2023/07/09 04:42:36;;;;;;;9.90;6.70;;;;;;;;;;4997267;28;20181;-81
2023/07/09 04:45:40;;;;;;;10.07;6.20;;;;;;;;;;4985363;28;20198;-81
2023/07/09 04:48:45;;;;;;;8.90;6.17;;;;;;;;;;4973745;28;20210;-81
2023/07/09 04:51:49;;;;;;;8.30;6.27;;;;;;;;;;4995953;28;20557;-81
2023/07/09 04:54:53;;;;;;;8.03;6.03;;;;;;;;;;4996424;28;20182;-81
2023/07/09 04:57:57;;;;;;;8.13;6.43;;;;;;;;;;4985103;28;20178;-81
2023/07/09 05:01:01;;;;;;;9.43;6.47;;;;;;;;;;4997455;28;20221;-81
2023/07/09 05:04:06;;;;;;;8.83;6.63;;;;;;;;;;4998121;28;20189;-81
2023/07/09 05:07:10;;;;;;;8.07;6.10;;;;;;;;;;4985581;28;20174;-81
2023/07/09 05:10:15;;;;;;;8.67;6.20;;;;;;;;;;4977360;28;20210;-81
2023/07/09 05:13:19;;;;;;;13.60;7.10;;;;;;;;;;4976304;28;20179;-81
2023/07/09 05:16:23;;;;;;;9.90;6.47;;;;;;;;;;4976135;28;20192;-81
2023/07/09 05:19:27;;;;;;;10.80;6.30;;;;;;;;;;4976099;28;20701;-81
2023/07/09 05:22:31;;;;;;;13.40;7.00;;;;;;;;;;4976152;28;20174;-81
2023/07/09 05:25:36;;;;;;;10.27;7.20;;;;;;;;;;4965119;28;20210;-81
2023/07/09 05:28:40;;;;;;;10.00;6.60;;;;;;;;;;4976643;28;20210;-81
2023/07/09 05:31:44;;;;;;;10.63;6.83;;;;;;;;;;4976162;28;20227;-81
2023/07/09 05:34:48;;;;;;;9.80;6.63;;;;;;;;;;4976422;28;20196;-81
2023/07/09 05:37:53;;;;;;;12.17;6.73;;;;;;;;;;4954203;28;20195;-81
2023/07/09 05:41:04;;;;;;;10.57;6.57;;;;;;;;;;4976404;28;20226;-81
2023/07/09 05:44:09;;;;;;;11.23;6.93;;;;;;;;;;4976356;28;20195;-81
2023/07/09 05:47:13;;;;;;;11.73;7.53;;;;;;;;;;4954384;28;20665;-81
2023/07/09 05:50:18;;;;;;;9.93;7.33;;;;;;;;;;4977013;28;20574;-81
2023/07/09 05:53:22;;;;;;;10.07;6.77;;;;;;;;;;4975946;28;20539;-81
2023/07/09 05:56:26;;;;;;;10.40;7.13;;;;;;;;;;4965213;28;20192;-81
2023/07/09 05:59:31;;;;;;;10.27;7.17;;;;;;;;;;4977271;28;20215;-81
2023/07/09 06:02:35;;;;;;;9.17;6.20;;;;;;;;;;4976499;28;20186;-81
2023/07/09 06:05:41;;;;;;;10.70;6.50;;;;;;;;;;4977447;28;20187;-82
2023/07/09 06:08:46;;;;;;;9.83;6.90;;;;;;;;;;4977217;28;20190;-81
2023/07/09 06:11:51;;;;;;;8.37;6.07;;;;;;;;;;4977208;28;20210;-81
2023/07/09 06:14:55;;;;;;;10.33;6.17;;;;;;;;;;4976796;28;20171;-81
2023/07/09 06:17:59;;;;;;;8.00;6.10;;;;;;;;;;4976706;28;20183;-81
2023/07/09 06:21:04;;;;;;;11.07;6.67;;;;;;;;;;4976066;28;20210;-81
2023/07/09 06:24:08;;;;;;;7.17;5.90;;;;;;;;;;4976432;28;20214;-81
2023/07/09 06:27:12;;;;;;;9.23;6.60;;;;;;;;;;4976253;28;20199;-81
2023/07/09 06:30:19;;;;;;;10.70;6.60;;;;;;;;;;4981622;28;20682;-83
2023/07/09 06:33:25;;;;;;;11.20;6.53;;;;;;;;;;4969658;28;20183;-83
2023/07/09 06:36:29;;;;;;;10.80;6.17;;;;;;;;;;4981645;28;20587;-83
2023/07/09 06:39:33;;;;;;;11.07;6.50;;;;;;;;;;4998024;28;20237;-84
2023/07/09 06:42:37;;;;;;;9.67;5.97;;;;;;;;;;4999020;28;20204;-84
2023/07/09 06:45:55;;;;;;;9.07;6.57;;;;;;;;;;5014515;28;20190;-84
2023/07/09 06:49:00;;;;;;;13.20;6.00;;;;;;;;;;4980159;28;20673;-84
2023/07/09 06:52:05;;;;;;;9.23;6.10;;;;;;;;;;5000287;28;20546;-84
2023/07/09 06:55:09;;;;;;;12.80;6.33;;;;;;;;;;5007840;28;20181;-84
2023/07/09 06:58:13;;;;;;;8.47;6.37;;;;;;;;;;5019136;28;20193;-84
2023/07/09 07:01:17;;;;;;;9.27;6.07;;;;;;;;;;4997113;28;20215;-84
2023/07/09 07:04:22;;;;;;;7.50;6.00;;;;;;;;;;5008631;28;20178;-84
2023/07/09 07:07:26;;;;;;;7.00;5.80;;;;;;;;;;5019668;28;20178;-85
2023/07/09 07:10:30;;;;;;;9.10;6.20;;;;;;;;;;4998597;28;20236;-85
2023/07/09 07:13:37;;;;;;;9.97;6.23;;;;;;;;;;4989518;28;20184;-85
2023/07/09 07:16:41;;;;;;;9.40;6.83;;;;;;;;;;5001416;28;20635;-85
2023/07/09 07:19:45;;;;;;;10.87;6.10;;;;;;;;;;4989445;28;20207;-84
2023/07/09 07:22:49;;;;;;;10.13;5.90;;;;;;;;;;4989406;28;20200;-84
2023/07/09 07:25:54;;;;;;;7.80;5.43;;;;;;;;;;4989216;28;20564;-85
2023/07/09 07:28:58;;;;;;;10.37;6.13;;;;;;;;;;4988985;28;20515;-84
2023/07/09 07:32:03;;;;;;;8.23;6.00;;;;;;;;;;4990469;28;20182;-84
2023/07/09 07:35:07;;;;;;;8.43;5.80;;;;;;;;;;4989918;28;20533;-84
2023/07/09 07:38:11;;;;;;;6.78;5.25;;;;;;;;;;4989495;28;20182;-84
2023/07/09 07:41:16;;;;;;;10.27;5.40;;;;;;;;;;4994312;28;20220;-86
2023/07/09 07:44:20;;;;;;;9.88;5.45;;;;;;;;;;5000242;28;20220;-86
2023/07/09 07:47:25;;;;;;;10.30;5.55;;;;;;;;;;4971707;28;20545;-87
2023/07/09 07:50:29;;;;;;;7.53;5.55;;;;;;;;;;4969814;28;20226;-86
2023/07/09 07:53:33;;;;;;;7.72;5.22;;;;;;;;;;4986245;28;20201;-86
2023/07/09 07:56:37;;;;;;;7.28;5.60;;;;;;;;;;4998309;28;20644;-86
2023/07/09 07:59:42;;;;;;;7.18;5.53;;;;;;;;;;4987351;28;20209;-86
2023/07/09 08:02:46;;;;;;;6.65;4.93;;;;;;;;;;5006078;28;20205;-86
2023/07/09 08:05:51;;;;;;;8.70;5.22;;;;;;;;;;5001087;28;20183;-86
2023/07/09 08:08:55;;;;;;;9.68;5.38;;;;;;;;;;4996938;28;20186;-86
2023/07/09 08:12:00;;;;;;;10.95;5.22;;;;;;;;;;4985118;28;20210;-86
2023/07/09 08:15:06;;;;;;;8.38;5.28;;;;;;;;;;4988163;28;20205;-86
2023/07/09 08:18:10;;;;;;;8.18;5.53;;;;;;;;;;4993378;28;20186;-86
2023/07/09 08:21:14;;;;;;;10.63;5.10;;;;;;;;;;4997386;28;20217;-86
2023/07/09 08:24:18;;;;;;;8.02;5.60;;;;;;;;;;5007818;28;20190;-87
2023/07/09 08:27:22;;;;;;;8.75;5.10;;;;;;;;;;4983822;28;20186;-88
2023/07/09 08:30:26;;;;;;;7.70;5.10;;;;;;;;;;5001381;28;20561;-86
2023/07/09 08:33:30;;;;;;;17.77;5.30;;;;;;;;;;5003411;28;20187;-87
2023/07/09 08:36:34;;;;;;;9.27;4.38;;;;;;;;;;4992875;28;20206;-86
2023/07/09 08:39:38;;;;;;;7.07;4.70;;;;;;;;;;5006602;28;20226;-86
2023/07/09 08:42:45;;;;;;;9.77;5.22;;;;;;;;;;4970727;28;20206;-87
2023/07/09 08:45:57;;;;;;;7.22;5.03;;;;;;;;;;4980094;28;20187;-86
2023/07/09 08:49:08;;;;;;;8.15;5.10;;;;;;;;;;4983087;28;20182;-86
2023/07/09 08:52:29;;;;;;;8.90;4.25;;;;;;;;;;4990154;28;20534;-86
2023/07/09 08:55:40;;;;;;;6.40;4.70;;;;;;;;;;4965675;28;20188;-86
2023/07/09 08:58:46;;;;;;;8.27;4.90;;;;;;;;;;4955402;28;20521;-87
2023/07/09 09:07:04;;;;;;;7.40;4.60;;;;;;;;;;4975656;28;20191;-89
2023/07/09 09:11:21;;;;;;;9.15;5.15;;;;;;;;;;4975737;28;20722;-88
2023/07/09 09:14:58;;;;;;;7.03;4.70;;;;;;;;;;4953857;28;20202;-88
2023/07/09 09:18:22;;;;;;;10.70;5.47;;;;;;;;;;4976732;28;20187;-88
2023/07/09 09:22:15;;;;;;;8.82;4.32;;;;;;;;;;4964458;28;20218;-88
2023/07/09 09:25:29;;;;;;;6.30;4.00;;;;;;;;;;4953687;28;20171;-88
2023/07/09 09:28:35;;;;;;;8.32;4.00;;;;;;;;;;4965840;28;20187;-88
2023/07/09 09:31:42;;;;;;;8.30;3.90;;;;;;;;;;4964336;28;20210;-88
2023/07/09 09:34:47;;;;;;;5.22;3.85;;;;;;;;;;4975647;28;20179;-88
2023/07/09 09:37:54;;;;;;;4.80;3.92;;;;;;;;;;4963970;28;20179;-88
2023/07/09 09:41:02;;;;;;;4.57;3.63;;;;;;;;;;4976151;28;20219;-88
2023/07/09 09:44:18;;;;;;;7.18;3.38;;;;;;;;;;4951914;28;20175;-87
2023/07/09 09:47:26;;;;;;;4.93;3.17;;;;;;;;;;4973731;28;20184;-87
2023/07/09 09:50:32;;;;;;;5.78;3.42;;;;;;;;;;4962652;28;20234;-87
2023/07/09 09:53:39;;;;;;;6.45;3.38;;;;;;;;;;4999330;28;20194;-87
2023/07/09 09:56:44;;;;;;;5.55;3.35;;;;;;;;;;5001445;28;20181;-88
2023/07/09 09:59:48;;;;;;;6.30;3.70;;;;;;;;;;4990741;28;20170;-88
2023/07/09 10:03:06;;;;;;;7.03;3.50;;;;;;;;;;5002583;28;20178;-87
2023/07/09 10:06:45;;;;;;;7.78;3.20;;;;;;;;;;5005831;28;20177;-88
2023/07/09 10:10:01;;;;;;;4.88;2.80;;;;;;;;;;5016474;28;20217;-88
2023/07/09 10:13:29;;;;;;;5.18;3.25;;;;;;;;;;5005736;28;20178;-88
2023/07/09 10:17:15;;;;;;;6.13;3.22;;;;;;;;;;5016589;28;20196;-89
2023/07/09 10:21:33;;;;;;;5.95;3.50;;;;;;;;;;4990746;28;20222;-89
2023/07/09 10:25:06;;;;;;;6.28;3.40;;;;;;;;;;4997331;28;20175;-89
2023/07/09 10:34:00;;;;;;;7.35;2.90;;;;;;;;;;4996861;28;20182;-88
2023/07/09 10:37:29;;;;;;;5.35;3.47;;;;;;;;;;4942546;28;20202;-88
2023/07/09 10:40:41;;;;;;;5.28;3.45;;;;;;;;;;4985178;28;20229;-88
2023/07/09 10:43:58;;;;;;;4.50;3.25;;;;;;;;;;4993903;28;20186;-87
2023/07/09 10:47:09;;;;;;;5.40;3.65;;;;;;;;;;4965583;28;20194;-88
2023/07/09 10:50:27;;;;;;;5.93;3.42;;;;;;;;;;4987601;28;20231;-87
2023/07/09 10:53:36;;;;;;;5.07;3.38;;;;;;;;;;4954576;28;20187;-87
2023/07/09 10:56:43;;;;;;;6.03;3.45;;;;;;;;;;4955063;28;20179;-87
2023/07/09 10:59:50;;;;;;;7.60;3.60;;;;;;;;;;4965569;28;20186;-87
2023/07/09 11:03:02;;;;;;;4.30;3.20;;;;;;;;;;4978261;28;20206;-87
2023/07/09 11:06:35;;;;;;;4.75;3.45;;;;;;;;;;4980645;28;20194;-87
2023/07/09 11:09:42;;;;;;;5.40;3.47;;;;;;;;;;4987762;28;20190;-87
2023/07/09 11:12:58;;;;;;;5.63;3.45;;;;;;;;;;5015789;28;20177;-87
2023/07/09 11:16:05;;;;;;;6.28;3.33;;;;;;;;;;5015295;28;20189;-87
2023/07/09 11:19:18;;;;;;;7.05;3.78;;;;;;;;;;5004006;28;20181;-87
2023/07/09 11:22:39;;;;;;;3.88;3.20;;;;;;;;;;4993001;28;20177;-87
2023/07/09 11:25:48;;;;;;;4.82;3.28;;;;;;;;;;5003768;28;20186;-87
2023/07/09 11:29:01;;;;;;;4.43;3.38;;;;;;;;;;5003640;28;20197;-87
2023/07/09 11:32:09;;;;;;;6.13;3.53;;;;;;;;;;4992482;28;20221;-87
2023/07/09 11:35:21;;;;;;;9.88;3.83;;;;;;;;;;5004989;28;20186;-87
2023/07/09 11:38:25;;;;;;;5.75;3.20;;;;;;;;;;5016237;28;20186;-87
2023/07/09 11:41:35;;;;;;;4.93;3.10;;;;;;;;;;5015668;28;20217;-87
2023/07/09 11:44:47;;;;;;;6.03;3.50;;;;;;;;;;5004286;28;20186;-87
2023/07/09 11:48:12;;;;;;;6.68;3.60;;;;;;;;;;4992932;28;20174;-87
2023/07/09 11:51:23;;;;;;;5.53;3.47;;;;;;;;;;4999529;28;20217;-87
2023/07/09 11:54:27;;;;;;;5.05;3.05;;;;;;;;;;4987177;28;20626;-87
2023/07/09 11:57:31;;;;;;;5.38;3.45;;;;;;;;;;4972802;28;20182;-87
2023/07/09 12:00:44;;;;;;;4.78;3.15;;;;;;;;;;4972698;28;20218;-87
2023/07/09 12:03:51;;;;;;;4.70;3.55;;;;;;;;;;4983945;28;20194;-87
2023/07/09 12:07:00;;;;;;;5.20;3.08;;;;;;;;;;4983895;28;20191;-87
2023/07/09 12:10:23;;;;;;;6.38;3.50;;;;;;;;;;4983392;28;20218;-87
2023/07/09 12:13:28;;;;;;;5.28;3.35;;;;;;;;;;4975518;28;20238;-88
2023/07/09 12:16:39;;;;;;;4.45;3.08;;;;;;;;;;4979372;28;20201;-88
2023/07/09 12:19:45;;;;;;;4.68;3.03;;;;;;;;;;4974264;28;20190;-88
2023/07/09 12:22:52;;;;;;;6.32;3.72;;;;;;;;;;4971597;28;20533;-87
2023/07/09 12:26:01;;;;;;;5.85;3.47;;;;;;;;;;4982221;28;20519;-87
2023/07/09 12:29:09;;;;;;;5.97;3.30;;;;;;;;;;4972430;28;20182;-87
2023/07/09 12:32:17;;;;;;;7.10;3.83;;;;;;;;;;4972081;28;20206;-87
2023/07/09 12:35:21;;;;;;;4.95;3.25;;;;;;;;;;4972249;28;20182;-87
2023/07/09 12:38:30;;;;;;;4.90;3.17;;;;;;;;;;4994364;28;20182;-87
2023/07/09 12:41:46;;;;;;;4.88;3.25;;;;;;;;;;4971725;28;20221;-87
2023/07/09 12:45:00;;;;;;;9.02;3.55;;;;;;;;;;4971737;28;20201;-87
2023/07/09 12:48:10;;;;;;;5.45;3.58;;;;;;;;;;4971882;28;20178;-87
2023/07/09 12:51:29;;;;;;;6.05;3.42;;;;;;;;;;4982831;28;20221;-87
2023/07/09 12:54:42;;;;;;;6.82;3.60;;;;;;;;;;4972651;28;20178;-86
2023/07/09 12:57:52;;;;;;;5.45;2.92;;;;;;;;;;4971846;28;20182;-87
2023/07/09 13:01:00;;;;;;;4.85;3.47;;;;;;;;;;4971431;28;20210;-87
2023/07/09 13:04:12;;;;;;;5.57;3.30;;;;;;;;;;4971669;28;20190;-86
2023/07/09 13:07:37;;;;;;;6.10;3.45;;;;;;;;;;4960513;28;20182;-86
2023/07/09 13:10:44;;;;;;;4.97;3.50;;;;;;;;;;4982583;28;20233;-87
2023/07/09 13:13:59;;;;;;;5.28;3.28;;;;;;;;;;4962797;28;20194;-86
2023/07/09 13:17:32;;;;;;;6.07;3.20;;;;;;;;;;4952268;28;20546;-87
2023/07/09 13:21:00;;;;;;;4.88;3.03;;;;;;;;;;4971579;28;20210;-86
2023/07/09 13:24:22;;;;;;;5.15;3.05;;;;;;;;;;4993297;28;20182;-87
2023/07/09 13:27:26;;;;;;;5.95;3.00;;;;;;;;;;4982576;28;20637;-87
2023/07/09 13:30:31;;;;;;;7.18;3.15;;;;;;;;;;4971296;28;20217;-86
2023/07/09 13:33:38;;;;;;;5.05;3.20;;;;;;;;;;4973635;28;20187;-86
2023/07/09 13:36:42;;;;;;;3.88;3.45;;;;;;;;;;4974238;28;20183;-87
2023/07/09 13:39:46;;;;;;;6.03;3.00;;;;;;;;;;4966789;28;20190;-86
2023/07/09 13:42:51;;;;;;;4.75;3.15;;;;;;;;;;4970436;28;20202;-88
2023/07/09 13:46:09;;;;;;;4.72;3.28;;;;;;;;;;4963338;28;20649;-89
2023/07/09 13:49:18;;;;;;;4.10;2.60;;;;;;;;;;4982109;28;20189;-87
2023/07/09 13:52:25;;;;;;;5.30;3.25;;;;;;;;;;4969446;28;20557;-87
2023/07/09 13:55:30;;;;;;;3.85;2.80;;;;;;;;;;4956112;28;20678;-87
2023/07/09 13:58:35;;;;;;;4.75;2.92;;;;;;;;;;4959988;28;20666;-85
2023/07/09 14:01:39;;;;;;;5.75;3.10;;;;;;;;;;4970176;28;20213;-85
2023/07/09 14:04:43;;;;;;;4.53;3.22;;;;;;;;;;4975039;28;20209;-85
2023/07/09 14:07:47;;;;;;;5.07;3.13;;;;;;;;;;4993809;28;20178;-85
2023/07/09 14:10:52;;;;;;;5.00;3.47;;;;;;;;;;4981953;28;20225;-85
2023/07/09 14:13:56;;;;;;;3.72;3.28;;;;;;;;;;4982176;28;20197;-85
2023/07/09 14:17:00;;;;;;;4.60;3.15;;;;;;;;;;4982231;28;20182;-84
2023/07/09 14:20:04;;;;;;;3.72;3.00;;;;;;;;;;4971312;28;20209;-84
2023/07/09 14:23:15;;;;;;;5.50;2.85;;;;;;;;;;4971101;28;20630;-85
2023/07/09 14:26:19;;;;;;;3.75;3.30;;;;;;;;;;4992402;28;20529;-84
2023/07/09 14:29:24;;;;;;;6.30;3.20;;;;;;;;;;4968098;28;20206;-85
2023/07/09 14:32:34;;;;;;;5.88;3.25;;;;;;;;;;4962883;28;20206;-85
2023/07/09 14:35:38;;;;;;;5.47;2.92;;;;;;;;;;4963228;28;20187;-85
2023/07/09 14:38:43;;;;;;;3.78;2.72;;;;;;;;;;4963502;28;20182;-85
2023/07/09 14:41:47;;;;;;;5.18;3.20;;;;;;;;;;4963207;28;20563;-85
2023/07/09 14:44:51;;;;;;;6.90;2.92;;;;;;;;;;4962889;28;20186;-85
2023/07/09 14:47:55;;;;;;;7.60;3.15;;;;;;;;;;4974664;28;20198;-85
2023/07/09 14:51:00;;;;;;;6.07;2.90;;;;;;;;;;4955509;28;20222;-85
2023/07/09 14:54:17;;;;;;;5.22;3.10;;;;;;;;;;4977876;28;20182;-85
2023/07/09 14:57:22;;;;;;;5.97;3.33;;;;;;;;;;4976839;28;20194;-85
2023/07/09 15:00:26;;;;;;;5.85;2.95;;;;;;;;;;4977107;28;20218;-85
2023/07/09 15:03:31;;;;;;;6.68;2.90;;;;;;;;;;4977128;28;20643;-85
2023/07/09 15:06:35;;;;;;;4.03;3.00;;;;;;;;;;4954609;28;20622;-86
2023/07/09 15:09:40;;;;;;;4.70;3.05;;;;;;;;;;4973368;28;20182;-86
2023/07/09 15:12:45;;;;;;;5.35;3.10;;;;;;;;;;4965228;28;20585;-86
2023/07/09 15:15:50;;;;;;;6.25;2.97;;;;;;;;;;4976284;28;20198;-86
2023/07/09 15:18:53;;;;;;;6.07;3.08;;;;;;;;;;4976121;28;20183;-86
2023/07/09 15:21:58;;;;;;;4.78;3.13;;;;;;;;;;4953895;28;20210;-86
2023/07/09 15:25:02;;;;;;;7.22;3.40;;;;;;;;;;4987411;28;20182;-86
2023/07/09 15:28:11;;;;;;;7.03;3.00;;;;;;;;;;4979600;28;20531;-87
2023/07/09 15:31:18;;;;;;;4.97;2.92;;;;;;;;;;4973162;28;20263;-87
2023/07/09 15:34:23;;;;;;;5.72;3.08;;;;;;;;;;4984380;28;20182;-87
2023/07/09 15:37:28;;;;;;;6.03;3.28;;;;;;;;;;4962342;28;20186;-87
2023/07/09 15:40:35;;;;;;;6.72;2.92;;;;;;;;;;4973223;28;20218;-87
2023/07/09 15:43:44;;;;;;;5.95;3.00;;;;;;;;;;4973443;28;20182;-87
2023/07/09 15:46:55;;;;;;;6.22;3.25;;;;;;;;;;4999614;23;20577;-80
2023/07/09 15:50:00;;;;;;;6.60;3.28;;;;;;;;;;4978018;28;20187;-80
2023/07/09 15:53:09;;;;;;;7.43;3.17;;;;;;;;;;4978296;28;20212;-80
2023/07/09 15:56:32;;;;;;;6.07;3.00;;;;;;;;;;4977598;28;20214;-80
2023/07/09 15:59:36;;;;;;;4.90;2.92;;;;;;;;;;4977819;28;20192;-79
2023/07/09 16:02:40;;;;;;;4.15;3.05;;;;;;;;;;4976974;28;20187;-79
2023/07/09 16:05:44;;;;;;;5.38;3.25;;;;;;;;;;4976066;28;20222;-79
2023/07/09 16:08:49;;;;;;;4.15;2.88;;;;;;;;;;4975988;28;20183;-79
2023/07/09 16:11:54;;;;;;;5.55;3.30;;;;;;;;;;4976643;28;20222;-79
2023/07/09 16:14:58;;;;;;;6.53;3.13;;;;;;;;;;4965115;28;20183;-79
2023/07/09 16:18:08;;;;;;;6.47;3.03;;;;;;;;;;4982142;28;20187;-79
2023/07/09 16:21:22;;;;;;;8.23;3.30;;;;;;;;;;4980520;28;20534;-79
2023/07/09 16:24:30;;;;;;;6.85;3.40;;;;;;;;;;4970112;28;20183;-79
2023/07/09 16:27:34;;;;;;;4.53;3.20;;;;;;;;;;4979697;28;20661;-79
2023/07/09 16:30:38;;;;;;;4.63;3.30;;;;;;;;;;4967153;28;20183;-79
2023/07/09 16:33:43;;;;;;;4.00;2.92;;;;;;;;;;4977039;28;20175;-79
2023/07/09 16:36:47;;;;;;;6.38;3.03;;;;;;;;;;4974815;28;20211;-79
2023/07/09 16:39:51;;;;;;;6.03;2.60;;;;;;;;;;4975141;28;20179;-81
2023/07/09 16:43:01;;;;;;;6.38;3.30;;;;;;;;;;4963853;28;20179;-80
2023/07/09 16:46:15;;;;;;;5.53;2.70;;;;;;;;;;4975317;28;20733;-80
2023/07/09 16:49:28;;;;;;;4.43;3.10;;;;;;;;;;4974810;28;20191;-80
2023/07/09 16:52:33;;;;;;;5.47;2.90;;;;;;;;;;4974477;28;20222;-80
2023/07/09 16:55:37;;;;;;;6.10;2.95;;;;;;;;;;4975288;28;20222;-79
2023/07/09 16:58:41;;;;;;;5.70;3.00;;;;;;;;;;4975084;28;20179;-79
2023/07/09 17:01:46;;;;;;;4.35;3.10;;;;;;;;;;4974516;28;20183;-79
2023/07/09 17:04:51;;;;;;;6.80;3.15;;;;;;;;;;4963254;28;20184;-79
2023/07/09 17:07:55;;;;;;;4.35;2.63;;;;;;;;;;4974534;28;20513;-79
2023/07/09 17:11:02;;;;;;;5.65;3.33;;;;;;;;;;4974084;28;20175;-79
2023/07/09 17:14:13;;;;;;;6.57;3.00;;;;;;;;;;4974640;28;20179;-79
2023/07/09 17:17:20;;;;;;;3.58;2.92;;;;;;;;;;4962946;28;20559;-79
2023/07/09 17:20:27;;;;;;;7.22;3.20;;;;;;;;;;4975191;28;20175;-80
2023/07/09 17:23:32;;;;;;;5.75;3.25;;;;;;;;;;4974148;28;20180;-80
2023/07/09 17:26:37;;;;;;;5.50;2.90;;;;;;;;;;4974036;28;20262;-80
2023/07/09 17:29:42;;;;;;;5.72;3.10;;;;;;;;;;4975253;28;20187;-80
2023/07/09 17:32:47;;;;;;;6.82;3.13;;;;;;;;;;4973924;28;20203;-80
2023/07/09 17:35:55;;;;;;;5.05;3.30;;;;;;;;;;4973743;28;20219;-80
2023/07/09 17:38:59;;;;;;;6.82;3.42;;;;;;;;;;4974306;28;20188;-80
2023/07/09 17:42:03;;;;;;;5.30;3.33;;;;;;;;;;4973951;28;20199;-80
2023/07/09 17:45:12;;;;;;;4.40;2.90;;;;;;;;;;4973646;28;20669;-79
2023/07/09 17:48:20;;;;;;;11.73;4.38;;;;;;;;;;4973930;28;20188;-79
2023/07/09 17:51:24;;;;;;;15.10;5.32;;;;;;;;;;4973751;28;20186;-79
2023/07/09 17:54:28;;;;;;;8.68;3.33;;;;;;;;;;4963065;28;20190;-80
2023/07/09 17:57:32;;;;;;;12.43;3.83;;;;;;;;;;4974648;28;20183;-81
2023/07/09 18:00:36;;;;;;;18.08;6.25;;;;;;;;;;4964051;28;20202;-83
2023/07/09 18:03:41;;;;;;;6.93;3.60;;;;;;;;;;4968731;28;20183;-81
2023/07/09 18:06:49;;;;;;;4.82;3.35;;;;;;;;;;4965764;28;20218;-81
2023/07/09 18:09:54;;;;;;;5.45;2.92;;;;;;;;;;4977228;28;20191;-81
2023/07/09 18:13:03;;;;;;;5.75;3.08;;;;;;;;;;4976823;28;20645;-81
2023/07/09 18:16:08;;;;;;;6.35;2.90;;;;;;;;;;4988503;28;20211;-83
2023/07/09 18:19:30;;;;;;;6.93;3.33;;;;;;;;;;4975811;28;20190;-81
2023/07/09 18:22:35;;;;;;;7.18;2.90;;;;;;;;;;4964774;28;20209;-83
2023/07/09 18:25:45;;;;;;;6.82;3.17;;;;;;;;;;4978069;28;20226;-83
2023/07/09 18:28:48;;;;;;;5.07;3.35;;;;;;;;;;4978361;28;20627;-83
2023/07/09 18:31:52;;;;;;;6.57;3.45;;;;;;;;;;4966416;28;20186;-83
2023/07/09 18:35:01;;;;;;;10.93;4.00;;;;;;;;;;4977848;28;20179;-82
2023/07/09 18:38:08;;;;;;;6.63;3.60;;;;;;;;;;4965947;28;20182;-83
2023/07/09 18:41:16;;;;;;;11.00;3.75;;;;;;;;;;4977569;28;20525;-82
2023/07/09 18:44:22;;;;;;;7.15;3.90;;;;;;;;;;4965931;28;20196;-82
2023/07/09 18:47:27;;;;;;;8.63;4.55;;;;;;;;;;4965636;28;20231;-82
2023/07/09 18:50:31;;;;;;;8.18;3.95;;;;;;;;;;4976898;28;20181;-83
2023/07/09 18:53:35;;;;;;;10.20;3.95;;;;;;;;;;4976269;28;20179;-83